Kerman, California
Current Conditions -  °F | °C
As of 6:53 PM on Tuesday 25 Nov 2014 (Local Time) from KMAE Reporting Station
Haze Haze  
Wind Chill: 49°   Ceiling: Unl
Heat Index: 49°   Visibility: 6mi
Dew Point: 42°   Wind: 0mph
Humidity: 77%   Direction: NA
Pressure: 30.39"   Gusts: NA
Location:  36.73°N, 120.06°W
Report Text: KMAE 260253Z AUTO 00000KT 6SM HZ CLR 09/06 A3039 RMK AO2 SLP290 T00940056 55000
Loading
Personal Weather Stations






























Interactive Weather Map New forecast layout! Learn more

10-Day Weather Forecast

Advertisements
Track Severe Weather on mobile